Time;durP1;ratioP1;P1;durP2;ratioP2;P2;SDS_P1;SDS_P2;PMS_P1;PMS_P2;Temp;Humidity;BMP_temperature;BMP_pressure;BME280_temperature;BME280_humidity;BME280_pressure;Samples;Min_cycle;Max_cycle;Signal;HPM_P1;HPM_P2
2022/05/18 00:00:19;;;;;;;1.30;1.20;;;19.10;35.30;;;;;;6197518;23;20142;-85
2022/05/18 00:02:45;;;;;;;2.38;1.30;;;19.00;35.30;;;;;;6173870;23;20150;-85
2022/05/18 00:05:13;;;;;;;1.25;1.15;;;19.00;35.30;;;;;;6221967;23;20515;-86
2022/05/18 00:07:38;;;;;;;1.40;1.30;;;19.00;35.30;;;;;;6198072;23;20514;-85
2022/05/18 00:10:04;;;;;;;3.42;1.17;;;19.00;35.30;;;;;;6197584;23;20134;-85
2022/05/18 00:12:30;;;;;;;1.45;1.20;;;19.00;35.40;;;;;;6197861;23;20165;-86
2022/05/18 00:14:56;;;;;;;1.23;1.13;;;19.00;35.30;;;;;;6196875;23;20146;-85
2022/05/18 00:17:22;;;;;;;1.75;1.30;;;19.00;35.40;;;;;;6172113;23;20167;-85
2022/05/18 00:19:49;;;;;;;1.00;0.90;;;19.00;35.40;;;;;;6172890;23;20573;-85
2022/05/18 00:22:14;;;;;;;1.35;1.25;;;19.00;35.40;;;;;;6196990;23;20134;-85
2022/05/18 00:24:42;;;;;;;1.23;1.13;;;19.00;35.30;;;;;;6196913;23;20529;-85
2022/05/18 00:27:12;;;;;;;1.30;1.20;;;19.00;35.50;;;;;;6172094;23;20157;-86
2022/05/18 00:29:42;;;;;;;1.20;1.10;;;18.90;35.40;;;;;;6122945;23;20470;-86
2022/05/18 00:32:10;;;;;;;1.38;1.10;;;18.90;35.40;;;;;;6172262;23;20187;-85
2022/05/18 00:34:38;;;;;;;1.45;1.00;;;18.90;35.50;;;;;;6171351;23;20146;-85
2022/05/18 00:37:08;;;;;;;1.05;0.90;;;19.00;35.60;;;;;;6172212;23;20149;-85
2022/05/18 00:39:38;;;;;;;1.52;1.38;;;18.90;35.50;;;;;;6146879;23;20153;-85
2022/05/18 00:42:07;;;;;;;1.05;0.95;;;19.00;35.60;;;;;;6147222;23;20163;-86
2022/05/18 00:44:36;;;;;;;1.67;1.08;;;19.00;35.70;;;;;;6196944;23;20597;-85
2022/05/18 00:47:02;;;;;;;1.30;1.20;;;19.00;35.70;;;;;;6146430;23;20158;-85
2022/05/18 00:49:29;;;;;;;1.20;1.10;;;19.00;35.70;;;;;;6166948;23;20736;-85
2022/05/18 00:52:00;;;;;;;1.13;1.02;;;18.90;35.70;;;;;;6166071;23;20237;-86
2022/05/18 00:54:29;;;;;;;1.27;1.10;;;19.00;35.70;;;;;;6116963;23;20157;-86
2022/05/18 00:57:14;;;;;;;1.27;1.17;;;18.90;35.70;;;;;;6166035;23;20264;-85
2022/05/18 00:59:44;;;;;;;1.10;1.00;;;18.90;35.70;;;;;;6170346;23;20191;-85
2022/05/18 01:02:10;;;;;;;1.50;1.10;;;18.90;35.80;;;;;;6192090;23;20144;-85
2022/05/18 01:04:35;;;;;;;1.10;1.00;;;18.80;35.60;;;;;;6191657;23;20209;-85
2022/05/18 01:07:08;;;;;;;2.47;1.38;;;18.90;35.80;;;;;;6218458;23;20134;-85
2022/05/18 01:09:37;;;;;;;1.40;1.30;;;18.90;35.80;;;;;;6167465;23;20280;-85
2022/05/18 01:12:07;;;;;;;1.30;1.15;;;18.90;35.80;;;;;;6159734;23;20178;-86
2022/05/18 01:14:36;;;;;;;1.13;0.95;;;18.90;35.80;;;;;;6159283;23;20463;-86
2022/05/18 01:17:02;;;;;;;1.10;1.00;;;18.90;35.90;;;;;;6184985;23;20170;-85
2022/05/18 01:19:38;;;;;;;1.27;1.10;;;18.80;35.80;;;;;;6185277;23;20567;-85
2022/05/18 01:22:14;;;;;;;1.38;1.10;;;18.90;35.90;;;;;;6136780;23;20158;-85
2022/05/18 01:24:47;;;;;;;1.13;1.00;;;18.90;35.90;;;;;;6089349;23;20157;-86
2022/05/18 01:27:15;;;;;;;1.25;1.15;;;18.90;35.90;;;;;;6137038;23;20158;-85
2022/05/18 01:29:40;;;;;;;1.10;1.00;;;18.80;35.80;;;;;;6087142;23;20467;-85
2022/05/18 01:32:06;;;;;;;1.10;1.00;;;18.90;36.00;;;;;;6160005;23;20273;-85
2022/05/18 01:34:37;;;;;;;1.20;1.00;;;18.90;36.00;;;;;;6161359;23;20146;-85
2022/05/18 01:37:06;;;;;;;1.17;1.08;;;18.90;36.00;;;;;;6135724;23;20151;-85
2022/05/18 01:39:38;;;;;;;1.10;1.00;;;18.80;36.00;;;;;;6160401;23;20221;-85
2022/05/18 01:42:13;;;;;;;1.10;0.98;;;18.80;36.00;;;;;;6188001;23;20146;-86
2022/05/18 01:44:39;;;;;;;1.38;1.02;;;18.80;36.00;;;;;;6192870;23;20164;-85
2022/05/18 01:47:05;;;;;;;1.20;1.10;;;18.80;36.10;;;;;;6217916;23;20146;-85
2022/05/18 01:49:32;;;;;;;1.17;1.08;;;18.80;36.00;;;;;;6216037;23;20204;-85
2022/05/18 01:52:01;;;;;;;1.67;1.20;;;18.80;36.10;;;;;;6191254;23;20166;-85
2022/05/18 01:54:27;;;;;;;2.13;1.00;;;18.90;36.10;;;;;;6191394;23;20153;-85
2022/05/18 01:56:52;;;;;;;1.13;1.02;;;18.80;36.10;;;;;;6218615;23;20134;-85
2022/05/18 01:59:18;;;;;;;1.17;1.00;;;18.80;36.10;;;;;;6218192;23;20178;-86
2022/05/18 02:01:44;;;;;;;1.20;1.10;;;18.90;36.20;;;;;;6193284;23;20145;-85
2022/05/18 02:04:10;;;;;;;1.30;1.20;;;18.80;36.10;;;;;;6217947;23;20219;-85
2022/05/18 02:06:38;;;;;;;1.38;1.10;;;18.80;36.20;;;;;;6193170;23;20130;-85
2022/05/18 02:09:06;;;;;;;2.35;1.10;;;18.80;36.20;;;;;;6167818;23;20205;-85
2022/05/18 02:11:34;;;;;;;1.50;1.20;;;18.80;36.20;;;;;;6118940;23;20161;-85
2022/05/18 02:14:04;;;;;;;1.38;1.27;;;18.80;36.20;;;;;;6118351;23;20182;-86
2022/05/18 02:16:29;;;;;;;1.10;1.00;;;18.80;36.20;;;;;;6143353;23;20461;-85
2022/05/18 02:18:55;;;;;;;1.27;1.10;;;18.80;36.20;;;;;;6193155;23;20608;-85
2022/05/18 02:21:22;;;;;;;1.25;1.10;;;18.80;36.30;;;;;;6168355;23;20153;-85
2022/05/18 02:23:49;;;;;;;0.80;0.80;;;18.80;36.30;;;;;;6118530;23;20158;-85
2022/05/18 02:26:19;;;;;;;0.98;0.90;;;18.80;36.30;;;;;;6117605;23;20596;-86
2022/05/18 02:28:46;;;;;;;0.90;0.90;;;18.80;36.30;;;;;;6143856;23;20469;-85
2022/05/18 02:31:12;;;;;;;0.90;0.85;;;18.80;36.30;;;;;;6166652;23;20214;-85
2022/05/18 02:33:38;;;;;;;1.02;0.93;;;18.80;36.30;;;;;;6219881;23;20463;-85
2022/05/18 02:36:06;;;;;;;1.08;0.98;;;18.80;36.30;;;;;;6217735;23;20130;-86
2022/05/18 02:38:32;;;;;;;1.13;1.02;;;18.80;37.10;;;;;;6193763;23;20134;-85
2022/05/18 02:40:58;;;;;;;1.17;0.98;;;18.80;36.40;;;;;;6193007;23;20146;-85
2022/05/18 02:43:27;;;;;;;1.20;1.10;;;18.70;36.30;;;;;;6168121;23;20199;-86
2022/05/18 02:46:02;;;;;;;1.38;1.23;;;18.80;36.40;;;;;;6193032;23;20218;-86
2022/05/18 02:48:28;;;;;;;1.23;1.10;;;18.70;36.40;;;;;;6168640;23;20193;-85
2022/05/18 02:50:55;;;;;;;1.30;1.20;;;18.70;36.50;;;;;;6192294;23;20197;-85
2022/05/18 02:53:22;;;;;;;1.27;1.13;;;18.80;36.50;;;;;;6117773;23;20255;-86
2022/05/18 02:58:39;;;;;;;1.20;1.10;;;18.70;36.50;;;;;;6176398;23;20173;-86
2022/05/18 03:01:07;;;;;;;1.25;1.00;;;18.70;36.50;;;;;;6144168;23;20582;-84
2022/05/18 03:03:34;;;;;;;1.38;1.27;;;18.70;36.60;;;;;;6168335;23;20181;-85
2022/05/18 03:06:03;;;;;;;1.33;1.13;;;18.70;36.60;;;;;;6193087;23;20142;-85
2022/05/18 03:08:28;;;;;;;1.20;1.10;;;18.70;36.60;;;;;;6192477;23;20249;-86
2022/05/18 03:10:54;;;;;;;1.33;1.13;;;18.70;36.60;;;;;;6192672;23;20478;-87
2022/05/18 03:13:21;;;;;;;1.33;1.00;;;18.70;36.60;;;;;;6191915;23;20521;-85
2022/05/18 03:15:47;;;;;;;1.35;1.10;;;18.70;36.60;;;;;;6192801;23;20137;-85
2022/05/18 03:18:14;;;;;;;2.35;1.02;;;18.80;36.70;;;;;;6192162;23;20152;-86
2022/05/18 03:25:56;;;;;;;1.00;0.90;;;18.70;36.70;;;;;;6217224;23;20138;-85
2022/05/18 03:28:21;;;;;;;1.98;1.02;;;18.60;36.60;;;;;;6166850;23;20647;-86
2022/05/18 03:30:47;;;;;;;1.35;1.25;;;18.70;37.40;;;;;;6217052;23;20141;-85
2022/05/18 03:33:13;;;;;;;1.00;0.90;;;18.70;36.70;;;;;;6167160;23;20189;-86
2022/05/18 03:35:39;;;;;;;1.38;1.20;;;18.70;36.70;;;;;;6166929;23;20142;-86
2022/05/18 03:38:06;;;;;;;1.30;1.00;;;18.70;36.70;;;;;;6191649;23;20149;-86
2022/05/18 03:40:37;;;;;;;1.30;1.10;;;18.70;36.70;;;;;;6165608;23;20589;-84
2022/05/18 03:43:07;;;;;;;1.02;0.95;;;18.70;36.70;;;;;;6167431;23;20146;-85
2022/05/18 03:45:34;;;;;;;1.52;1.20;;;18.70;36.70;;;;;;6141479;23;20158;-85
2022/05/18 03:48:01;;;;;;;0.90;0.90;;;18.70;36.70;;;;;;6167841;23;20237;-86
2022/05/18 03:50:28;;;;;;;1.10;1.00;;;18.70;36.70;;;;;;6171469;23;20252;-85
2022/05/18 03:52:57;;;;;;;1.20;1.10;;;18.80;36.70;;;;;;6170536;23;20181;-86
2022/05/18 03:55:23;;;;;;;1.17;1.08;;;18.80;36.70;;;;;;6121658;23;20153;-85
2022/05/18 03:57:50;;;;;;;1.00;0.90;;;18.80;36.60;;;;;;6171422;23;20152;-85
2022/05/18 04:00:20;;;;;;;1.13;1.02;;;18.80;36.60;;;;;;6121610;23;20185;-85
2022/05/18 04:02:50;;;;;;;1.20;0.90;;;18.70;36.50;;;;;;6195769;23;20160;-86
2022/05/18 04:05:20;;;;;;;1.05;0.98;;;18.80;36.60;;;;;;6170475;23;20153;-84
2022/05/18 04:07:47;;;;;;;1.20;1.02;;;18.80;36.60;;;;;;6122094;23;20522;-84
2022/05/18 04:10:14;;;;;;;2.10;1.10;;;18.90;36.60;;;;;;6170839;23;20662;-86
2022/05/18 04:12:41;;;;;;;1.33;1.23;;;18.80;36.50;;;;;;6196711;23;20215;-85
2022/05/18 04:15:08;;;;;;;0.90;0.80;;;18.90;36.50;;;;;;6221531;23;20136;-86
2022/05/18 04:17:35;;;;;;;1.17;0.88;;;18.90;36.50;;;;;;6196105;23;20573;-86
2022/05/18 04:20:04;;;;;;;1.20;0.88;;;18.90;36.60;;;;;;6221490;23;20209;-85
2022/05/18 04:22:30;;;;;;;1.88;1.10;;;18.90;36.50;;;;;;6171456;23;20173;-85
2022/05/18 04:25:01;;;;;;;1.00;0.90;;;18.90;36.40;;;;;;6196967;23;20141;-85
2022/05/18 04:27:28;;;;;;;1.35;1.10;;;18.90;36.50;;;;;;6148498;23;20160;-85
2022/05/18 04:29:54;;;;;;;1.13;1.02;;;19.00;36.50;;;;;;6172384;23;20200;-85
2022/05/18 04:32:23;;;;;;;1.13;0.98;;;19.00;36.50;;;;;;6221503;23;20193;-86
2022/05/18 04:34:51;;;;;;;2.03;1.13;;;19.00;36.50;;;;;;6147055;23;20219;-85
2022/05/18 04:37:21;;;;;;;1.60;1.02;;;18.90;36.40;;;;;;6170886;23;20149;-85
2022/05/18 04:39:51;;;;;;;0.95;0.90;;;19.00;36.50;;;;;;6146663;23;20195;-87
2022/05/18 04:42:22;;;;;;;1.33;1.13;;;19.00;36.40;;;;;;6146236;23;20484;-85
2022/05/18 04:44:49;;;;;;;1.05;0.95;;;19.00;36.40;;;;;;6197624;23;20149;-85
2022/05/18 04:47:19;;;;;;;1.20;1.05;;;19.00;36.40;;;;;;6196972;23;20133;-85
2022/05/18 04:49:45;;;;;;;1.00;1.00;;;19.00;36.30;;;;;;6197175;23;20188;-85
2022/05/18 04:52:14;;;;;;;0.70;0.70;;;19.00;36.30;;;;;;6221559;23;20243;-85
2022/05/18 04:54:40;;;;;;;0.88;0.88;;;19.00;36.40;;;;;;6248577;23;20141;-86
2022/05/18 04:57:06;;;;;;;1.10;1.00;;;19.00;36.50;;;;;;6196627;23;20137;-86
2022/05/18 04:59:32;;;;;;;1.92;1.10;;;19.00;36.50;;;;;;6170933;23;20146;-85
2022/05/18 05:01:59;;;;;;;1.17;1.05;;;19.00;36.60;;;;;;6221954;23;20156;-84
2022/05/18 05:04:28;;;;;;;1.10;1.00;;;19.00;36.50;;;;;;6196590;23;20480;-85
2022/05/18 05:06:56;;;;;;;1.52;1.17;;;19.10;36.50;;;;;;6121319;23;20153;-86
2022/05/18 05:09:24;;;;;;;1.30;1.00;;;19.00;36.40;;;;;;6145916;23;20476;-85
2022/05/18 05:11:53;;;;;;;1.42;1.10;;;19.00;36.50;;;;;;6170348;23;20153;-84
2022/05/18 05:14:21;;;;;;;0.93;0.93;;;19.00;36.50;;;;;;6170309;23;20149;-84
2022/05/18 05:16:49;;;;;;;1.25;1.00;;;19.10;36.50;;;;;;6170687;23;20149;-84
2022/05/18 05:19:16;;;;;;;1.17;0.90;;;19.10;37.20;;;;;;6171154;23;20176;-85
2022/05/18 05:21:44;;;;;;;1.92;1.02;;;19.00;36.50;;;;;;6146205;23;20153;-85
2022/05/18 05:24:12;;;;;;;1.20;1.10;;;19.00;36.50;;;;;;6196250;23;20157;-85
2022/05/18 05:26:38;;;;;;;0.80;0.80;;;19.10;36.60;;;;;;6171300;23;20941;-85
2022/05/18 05:29:04;;;;;;;1.00;0.90;;;19.10;36.50;;;;;;6171871;23;20232;-85
2022/05/18 05:31:33;;;;;;;1.20;1.10;;;19.10;36.60;;;;;;6171263;23;20188;-86
2022/05/18 05:34:02;;;;;;;1.15;0.88;;;19.10;36.60;;;;;;6122976;23;20184;-86
2022/05/18 05:36:32;;;;;;;1.08;0.98;;;19.10;36.50;;;;;;6147010;23;20175;-85
2022/05/18 05:39:01;;;;;;;1.20;1.10;;;19.10;36.40;;;;;;6122656;23;20214;-85
2022/05/18 05:41:32;;;;;;;1.20;1.02;;;19.10;36.50;;;;;;6146608;23;20157;-86
2022/05/18 05:44:01;;;;;;;1.00;0.90;;;19.10;36.50;;;;;;6146426;23;20160;-84
2022/05/18 05:46:30;;;;;;;1.13;0.90;;;19.20;36.50;;;;;;6146361;23;20488;-86
2022/05/18 05:48:56;;;;;;;1.10;1.00;;;19.10;36.50;;;;;;6161825;23;20637;-84
2022/05/18 05:51:25;;;;;;;1.25;1.13;;;19.10;36.60;;;;;;6187582;23;20152;-85
2022/05/18 05:53:54;;;;;;;1.23;0.90;;;19.10;36.60;;;;;;6112537;23;20190;-86
2022/05/18 05:56:20;;;;;;;1.35;1.00;;;19.00;36.60;;;;;;6112488;23;20182;-87
2022/05/18 05:58:48;;;;;;;1.42;0.80;;;19.10;36.60;;;;;;6186825;23;20135;-85
2022/05/18 06:01:17;;;;;;;1.00;0.90;;;19.10;36.50;;;;;;6186432;23;20154;-85
2022/05/18 06:03:42;;;;;;;0.95;0.90;;;19.10;36.60;;;;;;6185858;23;20447;-84
2022/05/18 06:06:10;;;;;;;2.95;1.25;;;19.10;36.60;;;;;;6161535;23;20173;-85
2022/05/18 06:08:35;;;;;;;1.02;0.90;;;19.10;36.70;;;;;;6185856;23;20138;-86
2022/05/18 06:11:02;;;;;;;1.17;0.90;;;19.10;36.70;;;;;;6185977;23;20135;-86
2022/05/18 06:13:28;;;;;;;1.10;1.00;;;19.10;36.70;;;;;;6210988;23;20194;-86
2022/05/18 06:15:55;;;;;;;1.17;1.08;;;19.10;36.80;;;;;;6210598;23;20131;-86
2022/05/18 06:18:22;;;;;;;1.05;0.95;;;19.10;36.80;;;;;;6135656;23;20151;-88
2022/05/18 06:20:49;;;;;;;1.20;1.10;;;19.10;36.80;;;;;;6211090;23;20149;-86
2022/05/18 06:23:15;;;;;;;0.82;0.80;;;19.10;37.00;;;;;;6161338;23;20546;-86
2022/05/18 06:25:42;;;;;;;1.13;1.00;;;19.10;36.80;;;;;;6161565;23;20185;-87
2022/05/18 06:28:09;;;;;;;1.10;0.82;;;19.10;36.70;;;;;;6111026;23;20241;-88
2022/05/18 06:30:35;;;;;;;1.10;1.00;;;19.20;37.00;;;;;;6135481;23;20241;-86
2022/05/18 06:33:01;;;;;;;0.93;0.90;;;19.20;36.90;;;;;;6161774;23;20606;-85
2022/05/18 06:35:27;;;;;;;1.52;0.98;;;19.20;37.30;;;;;;6211326;23;20205;-85
2022/05/18 06:37:53;;;;;;;1.25;1.00;;;19.20;38.10;;;;;;6161759;23;20142;-86
2022/05/18 06:40:19;;;;;;;1.30;1.10;;;19.10;37.50;;;;;;6212415;23;20630;-85
2022/05/18 06:42:45;;;;;;;0.90;0.80;;;19.20;37.50;;;;;;6210085;23;20183;-86
2022/05/18 06:45:15;;;;;;;1.67;1.05;;;19.10;37.60;;;;;;6161929;23;20188;-88
2022/05/18 06:47:46;;;;;;;1.58;1.00;;;19.10;37.60;;;;;;6134788;23;20150;-86
2022/05/18 06:50:13;;;;;;;0.98;0.85;;;19.10;37.50;;;;;;6117863;23;20198;-87
2022/05/18 06:52:42;;;;;;;1.02;0.90;;;19.00;37.40;;;;;;6192757;23;20193;-86
2022/05/18 06:55:11;;;;;;;1.20;1.08;;;18.90;37.70;;;;;;6218238;23;20184;-86
2022/05/18 06:57:41;;;;;;;1.90;0.90;;;18.90;37.30;;;;;;6194922;23;20142;-89
2022/05/18 07:00:12;;;;;;;1.10;1.00;;;18.80;37.40;;;;;;6169046;23;20174;-89
2022/05/18 07:02:39;;;;;;;1.42;1.10;;;19.00;37.90;;;;;;6175233;23;20158;-89
2022/05/18 07:05:05;;;;;;;2.30;1.10;;;18.90;37.60;;;;;;6228552;23;20592;-86
2022/05/18 07:38:35;;;;;;;1.00;0.90;;;19.00;37.80;;;;;;6211404;22;20197;-85
2022/05/18 07:41:01;;;;;;;1.15;0.88;;;18.90;38.00;;;;;;6179142;23;20209;-85
2022/05/18 07:43:29;;;;;;;1.67;0.95;;;18.90;38.10;;;;;;6199848;23;20142;-86
2022/05/18 07:45:58;;;;;;;1.30;1.00;;;19.00;38.20;;;;;;6222689;23;20126;-87
2022/05/18 07:48:24;;;;;;;1.05;0.90;;;19.00;38.00;;;;;;6201191;23;20221;-87
2022/05/18 07:50:50;;;;;;;1.73;0.80;;;19.00;38.00;;;;;;6175772;23;20135;-88
2022/05/18 07:53:15;;;;;;;1.00;0.90;;;19.00;38.20;;;;;;6175823;23;20177;-86
2022/05/18 07:55:41;;;;;;;1.77;1.05;;;19.10;38.00;;;;;;6199661;23;20561;-88
2022/05/18 07:58:10;;;;;;;1.23;0.93;;;19.10;37.90;;;;;;6200974;23;20118;-87
2022/05/18 08:00:38;;;;;;;1.20;1.10;;;19.10;38.10;;;;;;6172281;23;20138;-85
2022/05/18 08:03:04;;;;;;;3.63;1.20;;;19.10;38.00;;;;;;6169523;23;20149;-85
2022/05/18 08:05:30;;;;;;;3.90;1.27;;;19.10;38.10;;;;;;6194951;23;20138;-84
2022/05/18 08:07:58;;;;;;;3.42;1.13;;;19.10;38.10;;;;;;6169128;23;20145;-87
2022/05/18 08:15:51;;;;;;;2.75;1.20;;;19.30;38.20;;;;;;6199075;23;20213;-84
2022/05/18 08:18:17;;;;;;;3.72;1.20;;;19.20;38.00;;;;;;6172452;23;20580;-86
2022/05/18 08:20:45;;;;;;;2.88;1.30;;;19.30;38.20;;;;;;6173693;23;20149;-84
2022/05/18 08:23:10;;;;;;;3.92;1.10;;;19.20;38.10;;;;;;6194879;23;20142;-84
2022/05/18 08:25:36;;;;;;;6.57;1.23;;;19.30;38.30;;;;;;6196891;23;20612;-85
2022/05/18 08:28:13;;;;;;;2.45;1.20;;;19.30;38.10;;;;;;6198226;23;20142;-84
2022/05/18 08:30:39;;;;;;;6.97;1.35;;;19.20;38.20;;;;;;6176131;23;20201;-86
2022/05/18 08:35:43;;;;;;;3.15;1.20;;;19.20;38.50;;;;;;6231445;22;20205;-85
2022/05/18 08:38:14;;;;;;;1.83;0.93;;;19.20;38.40;;;;;;6178678;23;20183;-86
2022/05/18 08:40:46;;;;;;;3.38;1.10;;;19.30;38.30;;;;;;6231636;23;20132;-84
2022/05/18 08:43:16;;;;;;;5.57;1.38;;;19.30;38.20;;;;;;6176947;23;20141;-86
2022/05/18 08:45:47;;;;;;;1.13;0.90;;;19.30;38.30;;;;;;6199656;23;20133;-84
2022/05/18 08:48:45;;;;;;;2.92;1.13;;;19.30;38.20;;;;;;6176996;23;20141;-84
2022/05/18 08:51:25;;;;;;;2.72;1.20;;;19.30;38.20;;;;;;6205498;23;20144;-85
2022/05/18 08:53:59;;;;;;;4.78;1.42;;;19.40;38.20;;;;;;6177013;23;20172;-83
2022/05/18 08:56:37;;;;;;;3.55;1.35;;;19.30;38.20;;;;;;6177117;23;20229;-83
2022/05/18 08:59:08;;;;;;;4.95;1.55;;;19.30;38.30;;;;;;6225340;23;20181;-84
2022/05/18 09:01:40;;;;;;;4.80;1.20;;;19.30;38.30;;;;;;6202510;23;20129;-86
2022/05/18 09:04:07;;;;;;;9.07;1.58;;;19.40;38.30;;;;;;6176716;23;20225;-86
2022/05/18 09:06:37;;;;;;;9.70;1.20;;;19.30;38.50;;;;;;6202984;23;20137;-87
2022/05/18 09:11:50;;;;;;;7.15;1.45;;;19.30;38.70;;;;;;6210513;23;20130;-86
2022/05/18 09:14:17;;;;;;;6.55;1.25;;;19.30;39.50;;;;;;6226106;23;20620;-88
2022/05/18 09:16:51;;;;;;;3.05;1.13;;;19.30;38.70;;;;;;6199461;23;20126;-88
2022/05/18 09:19:43;;;;;;;3.63;1.15;;;19.40;38.70;;;;;;6201537;23;20126;-86
2022/05/18 09:22:22;;;;;;;5.65;1.38;;;19.50;38.70;;;;;;6176898;23;20187;-88
2022/05/18 09:24:55;;;;;;;4.60;1.40;;;19.50;38.50;;;;;;6224293;23;20134;-89
2022/05/18 09:27:35;;;;;;;4.05;1.38;;;19.40;38.50;;;;;;6226349;23;20122;-86
2022/05/18 09:30:13;;;;;;;3.25;1.30;;;19.50;38.70;;;;;;6226269;23;20149;-87
2022/05/18 09:33:02;;;;;;;6.93;1.40;;;19.50;38.70;;;;;;6177387;23;20231;-85
2022/05/18 09:36:13;;;;;;;4.38;1.50;;;19.40;38.60;;;;;;6168797;23;20579;-86
2022/05/18 09:38:39;;;;;;;3.08;1.33;;;19.50;38.70;;;;;;6201222;23;20166;-85
2022/05/18 09:41:07;;;;;;;6.28;1.40;;;19.50;38.70;;;;;;6174654;23;20602;-84
2022/05/18 09:43:36;;;;;;;4.95;1.40;;;19.60;38.70;;;;;;6198370;23;20157;-85
2022/05/18 09:46:02;;;;;;;8.18;1.63;;;19.60;38.60;;;;;;6221620;23;20210;-84
2022/05/18 09:48:49;;;;;;;9.63;1.67;;;19.60;38.40;;;;;;6195849;23;20476;-86
2022/05/18 09:51:16;;;;;;;7.47;1.55;;;19.60;38.40;;;;;;6220994;23;20136;-85
2022/05/18 09:53:42;;;;;;;14.02;1.88;;;19.60;38.60;;;;;;6218675;23;20180;-86
2022/05/18 09:56:14;;;;;;;10.23;1.70;;;19.60;38.60;;;;;;6220933;23;20158;-86
2022/05/18 09:58:41;;;;;;;7.43;2.10;;;19.60;38.60;;;;;;6170170;23;20158;-86
2022/05/18 10:09:13;;;;;;;11.20;1.83;;;19.60;38.70;;;;;;6194764;23;20150;-86
2022/05/18 10:11:38;;;;;;;9.23;1.33;;;19.50;38.80;;;;;;6166981;23;20607;-86
2022/05/18 10:14:08;;;;;;;7.43;1.80;;;19.50;38.90;;;;;;6191906;23;20257;-86
2022/05/18 10:16:43;;;;;;;7.03;1.75;;;19.50;39.10;;;;;;6167841;23;20150;-86
2022/05/18 10:19:14;;;;;;;5.95;1.75;;;19.50;39.10;;;;;;6191632;23;20575;-86
2022/05/18 10:21:56;;;;;;;7.40;1.60;;;19.50;39.00;;;;;;6192124;23;20137;-86
2022/05/18 10:24:27;;;;;;;7.82;1.80;;;19.60;38.90;;;;;;6168776;23;20177;-87
2022/05/18 10:27:22;;;;;;;7.38;1.60;;;19.60;38.80;;;;;;6191821;23;20237;-85
2022/05/18 10:30:01;;;;;;;6.80;1.85;;;19.70;38.60;;;;;;6217157;23;20571;-86
2022/05/18 10:32:29;;;;;;;7.93;1.70;;;19.70;38.50;;;;;;6193891;23;20177;-86
2022/05/18 10:34:55;;;;;;;6.10;1.67;;;19.70;38.40;;;;;;6170972;23;20147;-86
2022/05/18 10:37:40;;;;;;;4.97;1.50;;;19.70;38.30;;;;;;6196987;23;20141;-86
2022/05/18 10:40:17;;;;;;;5.45;1.77;;;19.70;38.30;;;;;;6199932;23;20180;-86
2022/05/18 10:42:47;;;;;;;4.35;1.42;;;19.70;38.30;;;;;;6197547;23;20138;-86
2022/05/18 10:45:34;;;;;;;7.40;1.52;;;19.70;38.40;;;;;;6172510;23;20133;-86
2022/05/18 10:48:14;;;;;;;4.57;1.70;;;19.70;38.40;;;;;;6197261;23;20220;-86
2022/05/18 10:50:39;;;;;;;8.25;1.83;;;19.70;38.20;;;;;;6172340;23;20141;-87
2022/05/18 10:53:17;;;;;;;4.57;1.60;;;19.70;38.30;;;;;;6196498;23;20612;-86
2022/05/18 10:56:03;;;;;;;7.35;1.58;;;19.70;38.20;;;;;;6221701;23;20180;-87
2022/05/18 10:58:33;;;;;;;6.22;1.63;;;19.70;38.30;;;;;;6197387;23;20165;-86
2022/05/18 11:01:04;;;;;;;4.00;1.60;;;19.70;38.20;;;;;;6196496;23;20133;-85
2022/05/18 11:03:50;;;;;;;8.30;1.95;;;19.70;38.00;;;;;;6171717;23;20558;-86
2022/05/18 11:06:35;;;;;;;6.70;1.70;;;19.70;38.30;;;;;;6195369;23;20191;-87
2022/05/18 11:09:03;;;;;;;4.65;1.40;;;19.70;38.10;;;;;;6226346;23;20136;-85
2022/05/18 11:11:37;;;;;;;3.55;1.40;;;19.70;38.30;;;;;;6171235;23;20145;-85
2022/05/18 11:14:19;;;;;;;5.95;1.58;;;19.70;38.70;;;;;;6197049;23;20165;-87
2022/05/18 11:16:59;;;;;;;4.80;1.70;;;19.70;37.80;;;;;;6199724;23;20137;-86
2022/05/18 11:19:50;;;;;;;6.47;1.67;;;19.70;37.90;;;;;;6221431;23;20130;-85
2022/05/18 11:22:30;;;;;;;3.63;1.40;;;19.80;37.50;;;;;;6201390;23;20133;-87
2022/05/18 11:25:09;;;;;;;6.13;1.42;;;19.80;37.80;;;;;;6173314;23;20148;-86
2022/05/18 11:27:45;;;;;;;3.55;1.50;;;19.90;37.90;;;;;;6175898;23;20138;-87
2022/05/18 11:30:17;;;;;;;5.80;1.60;;;19.80;37.70;;;;;;6256057;23;20125;-87
2022/05/18 11:32:58;;;;;;;5.22;1.73;;;19.80;37.90;;;;;;6179699;23;20173;-88
2022/05/18 11:35:26;;;;;;;5.10;1.63;;;19.70;38.80;;;;;;6195620;23;20190;-88
2022/05/18 11:38:15;;;;;;;5.25;1.23;;;19.80;38.00;;;;;;6220355;23;20169;-86
2022/05/18 11:40:53;;;;;;;5.25;2.00;;;19.80;37.80;;;;;;6220619;23;20535;-85
2022/05/18 11:43:35;;;;;;;4.75;1.75;;;19.80;37.90;;;;;;6220083;23;20216;-86
2022/05/18 11:46:25;;;;;;;4.45;1.67;;;19.80;38.00;;;;;;6195179;23;20161;-86
2022/05/18 11:49:20;;;;;;;3.33;1.48;;;19.80;37.50;;;;;;6196039;23;20285;-85
2022/05/18 11:52:00;;;;;;;3.13;1.30;;;19.80;38.00;;;;;;6217837;23;20142;-87
2022/05/18 11:54:46;;;;;;;3.00;1.35;;;19.90;37.40;;;;;;6220150;23;20145;-86
2022/05/18 11:57:32;;;;;;;4.95;1.48;;;19.90;38.00;;;;;;6219284;23;20145;-86
2022/05/18 12:00:44;;;;;;;3.45;1.40;;;19.80;37.70;;;;;;6220900;23;20130;-88
2022/05/18 12:03:45;;;;;;;3.95;1.60;;;19.90;37.90;;;;;;6203745;23;20154;-89
2022/05/18 12:06:32;;;;;;;;;;;;;;;;;;;;;
2022/05/18 12:09:26;;;;;;;5.13;1.70;;;19.90;37.70;;;;;;6200828;23;20173;-89
2022/05/18 12:12:06;;;;;;;5.22;1.27;;;19.90;37.80;;;;;;6173864;23;20157;-90
2022/05/18 12:14:50;;;;;;;3.25;1.40;;;19.90;37.10;;;;;;6222654;23;20652;-87
2022/05/18 12:17:22;;;;;;;4.22;1.70;;;20.00;37.20;;;;;;6220647;23;20126;-85
2022/05/18 12:20:00;;;;;;;4.93;1.45;;;19.90;37.10;;;;;;6168368;23;20180;-86
2022/05/18 12:22:29;;;;;;;3.35;1.73;;;20.00;37.40;;;;;;6192907;23;20134;-86
2022/05/18 12:24:56;;;;;;;1.48;1.38;;;20.00;37.20;;;;;;6167825;23;20229;-86
2022/05/18 12:27:23;;;;;;;5.65;1.65;;;20.10;36.50;;;;;;6194110;23;20150;-86
2022/05/18 12:29:58;;;;;;;2.30;1.30;;;20.10;37.30;;;;;;6169658;23;20146;-85
2022/05/18 12:32:24;;;;;;;3.30;1.50;;;20.10;37.10;;;;;;6216468;23;20588;-86
2022/05/18 12:35:22;;;;;;;4.40;1.70;;;20.10;37.20;;;;;;6197263;23;20137;-90
2022/05/18 12:37:52;;;;;;;4.47;1.50;;;20.00;37.30;;;;;;6176317;23;20146;-90
2022/05/18 12:40:33;;;;;;;3.88;1.60;;;19.90;37.50;;;;;;6171614;23;20184;-87
2022/05/18 12:43:09;;;;;;;2.15;1.50;;;19.90;37.40;;;;;;6172019;23;20181;-85
2022/05/18 12:45:41;;;;;;;2.85;1.45;;;20.00;37.50;;;;;;6172006;23;20192;-86
2022/05/18 12:48:13;;;;;;;3.05;1.45;;;20.00;37.00;;;;;;6196292;23;20631;-85
2022/05/18 12:51:00;;;;;;;2.08;1.20;;;20.10;37.20;;;;;;6197803;23;20136;-86
2022/05/18 12:53:26;;;;;;;2.72;1.60;;;20.00;37.30;;;;;;6195817;23;20177;-86
2022/05/18 12:56:16;;;;;;;2.38;1.70;;;20.10;36.50;;;;;;6196730;23;20175;-85
2022/05/18 12:58:43;;;;;;;2.92;1.23;;;20.00;37.00;;;;;;6221679;23;20132;-87
2022/05/18 13:01:12;;;;;;;1.67;1.40;;;20.10;36.80;;;;;;6196079;23;20138;-84
2022/05/18 13:03:58;;;;;;;1.90;1.30;;;20.10;36.60;;;;;;6196265;23;20203;-84
2022/05/18 13:06:39;;;;;;;4.00;1.58;;;20.10;36.70;;;;;;6195379;23;20148;-86
2022/05/18 13:09:33;;;;;;;3.05;1.50;;;20.10;36.80;;;;;;6194497;23;20132;-86
2022/05/18 13:12:26;;;;;;;4.47;1.60;;;20.10;36.50;;;;;;6173597;23;20152;-84
2022/05/18 13:15:26;;;;;;;4.22;1.30;;;20.10;36.90;;;;;;6197259;23;20154;-86
2022/05/18 13:17:55;;;;;;;3.25;1.33;;;20.20;37.30;;;;;;6243958;23;20156;-83
2022/05/18 13:20:51;;;;;;;3.13;1.38;;;20.20;36.70;;;;;;6218242;23;20130;-83
2022/05/18 13:23:33;;;;;;;2.15;1.50;;;20.20;36.50;;;;;;6201391;23;20222;-84
2022/05/18 13:26:08;;;;;;;6.00;1.42;;;20.20;36.70;;;;;;6196459;23;20134;-85
2022/05/18 13:28:34;;;;;;;5.90;1.70;;;20.20;36.90;;;;;;6219838;23;20168;-82
2022/05/18 13:31:00;;;;;;;2.28;1.10;;;20.20;37.00;;;;;;6220369;23;20513;-83
2022/05/18 13:33:29;;;;;;;4.75;1.42;;;20.10;37.10;;;;;;6195185;23;20175;-84
2022/05/18 13:35:54;;;;;;;2.15;1.48;;;20.10;37.30;;;;;;6189306;23;20200;-83
2022/05/18 13:38:24;;;;;;;4.32;1.10;;;20.20;36.70;;;;;;6188029;23;20154;-84
2022/05/18 13:41:01;;;;;;;1.60;1.23;;;20.20;36.80;;;;;;6190796;23;20126;-85
2022/05/18 13:43:32;;;;;;;2.00;1.13;;;20.30;36.90;;;;;;6164458;23;20464;-84
2022/05/18 13:46:03;;;;;;;4.38;1.40;;;20.20;36.80;;;;;;6189416;23;20142;-85
2022/05/18 13:48:31;;;;;;;3.97;1.70;;;20.30;36.90;;;;;;6214263;23;20213;-84
2022/05/18 13:51:04;;;;;;;2.22;1.30;;;20.30;36.90;;;;;;6214355;23;20206;-85
2022/05/18 13:53:34;;;;;;;1.50;1.40;;;20.30;37.10;;;;;;6165187;23;20181;-85
2022/05/18 13:56:05;;;;;;;3.42;1.58;;;20.30;37.00;;;;;;6167833;23;20178;-84
2022/05/18 13:58:35;;;;;;;3.15;1.20;;;20.40;36.90;;;;;;6216891;23;20142;-83
2022/05/18 14:01:03;;;;;;;4.45;1.40;;;20.30;36.80;;;;;;6190426;23;20146;-84
2022/05/18 14:03:36;;;;;;;3.90;1.27;;;20.30;36.90;;;;;;6190967;23;20500;-84
2022/05/18 14:06:04;;;;;;;1.63;1.38;;;20.40;37.00;;;;;;6167997;23;20142;-84